createdAt,value
2022-09-10T00:00:40.916Z,2.70
2022-09-10T00:03:10.497Z,2.40
2022-09-10T00:05:43.237Z,2.60
2022-09-10T00:08:15.881Z,2.33
2022-09-10T00:10:46.714Z,2.88
2022-09-10T00:13:17.494Z,2.40
2022-09-10T00:15:48.789Z,2.95
2022-09-10T00:18:20.296Z,3.15
2022-09-10T00:20:51.235Z,3.10
2022-09-10T00:23:26.677Z,2.40
2022-09-10T00:25:56.585Z,2.40
2022-09-10T00:28:28.028Z,2.90
2022-09-10T00:30:58.070Z,2.80
2022-09-10T00:33:29.134Z,2.80
2022-09-10T00:35:58.867Z,2.60
2022-09-10T00:38:31.500Z,2.87
2022-09-10T00:41:08.177Z,2.58
2022-09-10T00:43:54.554Z,2.60
2022-09-10T00:46:38.354Z,2.60
2022-09-10T00:49:15.630Z,2.80
2022-09-10T00:51:45.396Z,2.60
2022-09-10T00:54:17.953Z,2.25
2022-09-10T00:56:48.068Z,2.15
2022-09-10T00:59:20.309Z,1.70
2022-09-10T01:01:50.577Z,2.35
2022-09-10T01:04:20.552Z,1.85
2022-09-10T01:06:52.975Z,2.00
2022-09-10T01:09:26.611Z,1.80
2022-09-10T01:12:06.986Z,1.90
2022-09-10T01:15:05.358Z,1.90
2022-09-10T01:17:41.910Z,1.80
2022-09-10T01:20:53.822Z,1.73
2022-09-10T01:23:53.697Z,1.98
2022-09-10T01:26:45.446Z,2.03
2022-09-10T01:29:22.713Z,2.10
2022-09-10T01:31:56.467Z,2.50
2022-09-10T01:34:30.314Z,2.30
2022-09-10T01:37:04.157Z,2.83
2022-09-10T01:39:37.478Z,2.42
2022-09-10T01:42:07.549Z,2.60
2022-09-10T01:44:49.026Z,2.35
2022-09-10T01:47:41.923Z,2.70
2022-09-10T01:50:22.656Z,3.20
2022-09-10T01:53:05.182Z,2.53
2022-09-10T01:55:38.853Z,2.67
2022-09-10T01:58:19.935Z,2.50
2022-09-10T02:01:05.708Z,2.80
2022-09-10T02:03:37.534Z,3.20
2022-09-10T02:06:09.463Z,2.90
2022-09-10T02:08:42.989Z,3.67
2022-09-10T02:11:14.306Z,3.58
2022-09-10T02:13:48.420Z,3.30
2022-09-10T02:16:43.777Z,2.85
2022-09-10T02:19:15.025Z,2.75
2022-09-10T02:21:44.605Z,3.60
2022-09-10T02:24:15.259Z,3.15
2022-09-10T02:26:47.265Z,3.00
2022-09-10T02:29:19.283Z,3.30
2022-09-10T02:31:51.455Z,3.08
2022-09-10T02:34:21.764Z,3.20
2022-09-10T02:36:52.404Z,2.50
2022-09-10T02:39:22.337Z,2.70
2022-09-10T02:41:53.898Z,2.90
2022-09-10T02:44:27.193Z,2.33
2022-09-10T02:46:59.428Z,2.30
2022-09-10T02:49:29.183Z,2.30
2022-09-10T02:51:58.761Z,2.38
2022-09-10T02:54:28.694Z,2.03
2022-09-10T02:56:58.542Z,2.40
2022-09-10T02:59:29.037Z,2.40
2022-09-10T03:02:02.242Z,2.20
2022-09-10T03:04:31.906Z,2.65
2022-09-10T03:07:01.552Z,2.50
2022-09-10T03:09:31.424Z,2.90
2022-09-10T03:12:01.039Z,3.10
2022-09-10T03:14:31.186Z,3.50
2022-09-10T03:17:03.870Z,3.33
2022-09-10T03:19:34.033Z,3.20
2022-09-10T03:22:03.640Z,3.92
2022-09-10T03:24:35.802Z,4.13
2022-09-10T03:27:06.092Z,3.63
2022-09-10T03:29:36.297Z,4.20
2022-09-10T03:32:08.977Z,4.45
2022-09-10T03:34:39.946Z,4.90
2022-09-10T03:37:09.694Z,4.50
2022-09-10T03:39:39.478Z,5.17
2022-09-10T03:42:09.426Z,5.50
2022-09-10T03:44:39.094Z,5.53
2022-09-10T03:47:12.345Z,5.80
2022-09-10T03:49:42.758Z,6.75
2022-09-10T03:52:13.672Z,6.60
2022-09-10T03:54:45.555Z,7.32
2022-09-10T03:57:15.556Z,7.40
2022-09-10T03:59:46.108Z,8.20
2022-09-10T04:02:18.510Z,8.77
2022-09-10T04:04:49.246Z,9.23
2022-09-10T04:07:18.765Z,8.57
2022-09-10T04:09:48.315Z,8.10
2022-09-10T04:12:17.986Z,8.18
2022-09-10T04:14:47.710Z,8.77
2022-09-10T04:17:20.929Z,9.25
2022-09-10T04:19:52.344Z,9.55
2022-09-10T04:22:23.472Z,10.07
2022-09-10T04:24:53.734Z,9.40
2022-09-10T04:27:26.631Z,10.15
2022-09-10T04:29:57.372Z,11.32
2022-09-10T04:32:30.968Z,10.47
2022-09-10T04:35:03.006Z,10.02
2022-09-10T04:37:33.608Z,10.27
2022-09-10T04:40:05.191Z,9.63
2022-09-10T04:42:39.851Z,9.53
2022-09-10T04:45:11.552Z,8.70
2022-09-10T04:47:46.031Z,8.77
2022-09-10T04:50:17.089Z,8.73
2022-09-10T04:53:07.869Z,9.20
2022-09-10T04:55:39.488Z,9.20
2022-09-10T04:58:09.498Z,9.23
2022-09-10T05:00:39.377Z,9.20
2022-09-10T05:03:13.250Z,10.30
2022-09-10T05:05:46.030Z,9.80
2022-09-10T05:08:15.883Z,10.05
2022-09-10T05:10:53.362Z,11.35
2022-09-10T05:13:24.246Z,12.15
2022-09-10T05:15:54.478Z,11.18
2022-09-10T05:18:27.590Z,12.57
2022-09-10T05:20:57.729Z,12.30
2022-09-10T05:23:27.507Z,12.20
2022-09-10T05:25:57.723Z,13.98
2022-09-10T05:28:27.530Z,12.80
2022-09-10T05:30:58.106Z,11.85
2022-09-10T05:33:32.721Z,12.15
2022-09-10T05:36:02.877Z,11.55
2022-09-10T05:38:36.063Z,12.30
2022-09-10T05:41:08.110Z,11.32
2022-09-10T05:43:37.934Z,11.30
2022-09-10T05:46:08.234Z,10.65
2022-09-10T05:48:41.911Z,10.88
2022-09-10T05:51:13.453Z,9.75
2022-09-10T05:53:44.657Z,9.55
2022-09-10T05:56:14.411Z,8.90
2022-09-10T05:58:46.826Z,9.10
2022-09-10T06:01:17.481Z,9.27
2022-09-10T06:03:51.013Z,9.45
2022-09-10T06:06:21.254Z,10.90
2022-09-10T06:08:59.839Z,9.20
2022-09-10T06:11:50.261Z,9.82
2022-09-10T06:14:20.985Z,10.10
2022-09-10T06:16:53.578Z,9.80
2022-09-10T06:19:27.043Z,8.90
2022-09-10T06:21:58.242Z,10.45
2022-09-10T06:24:29.335Z,11.10
2022-09-10T06:26:59.989Z,11.67
2022-09-10T06:29:33.092Z,11.25
2022-09-10T06:32:02.712Z,13.13
2022-09-10T06:34:35.807Z,12.90
2022-09-10T06:37:07.148Z,10.70
2022-09-10T06:39:39.539Z,11.80
2022-09-10T06:42:10.072Z,10.18
2022-09-10T06:45:12.577Z,10.57
2022-09-10T06:50:58.468Z,9.05
2022-09-10T06:53:39.914Z,8.73
2022-09-10T06:56:15.138Z,7.40
2022-09-10T06:58:45.717Z,8.95
2022-09-10T07:01:19.058Z,9.43
2022-09-10T07:03:59.617Z,8.90
2022-09-10T07:06:35.298Z,8.80
2022-09-10T07:09:12.269Z,10.30
2022-09-10T07:11:51.455Z,9.70
2022-09-10T07:14:21.507Z,9.45
2022-09-10T07:16:53.435Z,9.55
2022-09-10T07:19:26.000Z,9.70
2022-09-10T07:21:58.233Z,8.77
2022-09-10T07:24:28.608Z,10.88
2022-09-10T07:27:07.569Z,10.30
2022-09-10T07:29:38.618Z,10.20
2022-09-10T07:32:13.784Z,9.73
2022-09-10T07:34:43.764Z,11.18
2022-09-10T07:37:18.259Z,10.95
2022-09-10T07:39:49.526Z,10.73
2022-09-10T07:42:20.529Z,10.43
2022-09-10T07:44:52.194Z,10.82
2022-09-10T07:47:22.080Z,10.68
2022-09-10T07:49:52.531Z,11.00
2022-09-10T07:52:24.697Z,10.20
2022-09-10T07:54:57.164Z,10.13
2022-09-10T07:57:27.167Z,10.20
2022-09-10T07:59:57.851Z,10.67
2022-09-10T08:02:28.206Z,10.68
2022-09-10T08:05:04.278Z,10.50
2022-09-10T08:07:38.296Z,10.18
2022-09-10T08:10:10.965Z,10.88
2022-09-10T08:12:43.608Z,9.73
2022-09-10T08:15:14.591Z,10.15
2022-09-10T08:17:44.995Z,10.97
2022-09-10T08:20:15.101Z,9.95
2022-09-10T08:22:51.472Z,9.70
2022-09-10T08:25:21.570Z,11.32
2022-09-10T08:27:51.508Z,10.50
2022-09-10T08:30:21.053Z,10.50
2022-09-10T08:32:51.536Z,10.40
2022-09-10T08:35:24.135Z,11.48
2022-09-10T08:37:56.506Z,11.20
2022-09-10T08:40:26.448Z,11.13
2022-09-10T08:42:56.346Z,9.85
2022-09-10T08:45:30.485Z,10.63
2022-09-10T08:48:05.910Z,10.60
2022-09-10T08:50:40.984Z,10.02
2022-09-10T08:53:25.961Z,9.63
2022-09-10T08:55:59.152Z,10.20
2022-09-10T08:58:31.571Z,10.55
2022-09-10T09:01:05.913Z,9.20
2022-09-10T09:03:39.752Z,8.90
2022-09-10T09:06:12.984Z,9.00
2022-09-10T09:08:51.849Z,11.27
2022-09-10T09:11:35.091Z,9.15
2022-09-10T09:14:25.499Z,9.65
2022-09-10T09:17:09.279Z,8.40
2022-09-10T09:19:47.101Z,8.85
2022-09-10T09:22:21.503Z,9.20
2022-09-10T09:24:59.283Z,9.50
2022-09-10T09:27:31.707Z,7.50
2022-09-10T09:30:04.749Z,8.00
2022-09-10T09:32:42.532Z,8.47
2022-09-10T09:35:25.374Z,8.50
2022-09-10T09:38:13.860Z,8.20
2022-09-10T09:40:49.700Z,9.10
2022-09-10T09:43:27.324Z,9.23
2022-09-10T09:45:57.471Z,9.93
2022-09-10T09:48:38.709Z,10.18
2022-09-10T09:51:11.685Z,9.60
2022-09-10T09:53:46.372Z,8.60
2022-09-10T09:56:25.219Z,10.25
2022-09-10T09:58:55.099Z,10.30
2022-09-10T10:01:26.424Z,9.48
2022-09-10T10:03:59.022Z,10.05
2022-09-10T10:06:31.319Z,8.70
2022-09-10T10:09:06.211Z,8.10
2022-09-10T10:11:51.061Z,8.30
2022-09-10T10:14:29.393Z,6.73
2022-09-10T10:17:01.074Z,7.40
2022-09-10T10:19:36.820Z,7.97
2022-09-10T10:22:22.198Z,7.90
2022-09-10T10:24:54.143Z,9.10
2022-09-10T10:27:32.861Z,8.57
2022-09-10T10:30:07.325Z,8.43
2022-09-10T10:32:44.796Z,7.40
2022-09-10T10:35:32.738Z,8.25
2022-09-10T10:38:31.970Z,8.95
2022-09-10T10:41:32.951Z,8.80
2022-09-10T10:44:24.103Z,10.25
2022-09-10T10:47:00.579Z,10.00
2022-09-10T10:49:39.406Z,8.68
2022-09-10T10:52:15.318Z,8.88
2022-09-10T10:54:56.814Z,11.45
2022-09-10T10:57:33.306Z,11.48
2022-09-10T11:00:09.353Z,10.50
2022-09-10T11:02:43.492Z,12.13
2022-09-10T11:05:22.266Z,11.60
2022-09-10T11:07:52.796Z,11.57
2022-09-10T11:10:26.036Z,11.52
2022-09-10T11:12:59.904Z,12.43
2022-09-10T11:15:37.141Z,13.63
2022-09-10T11:18:12.072Z,11.20
2022-09-10T11:20:45.282Z,9.80
2022-09-10T11:23:25.745Z,10.27
2022-09-10T11:25:59.624Z,9.40
2022-09-10T11:28:32.165Z,11.45
2022-09-10T11:31:09.868Z,12.90
2022-09-10T11:33:46.188Z,14.90
2022-09-10T11:36:24.740Z,14.88
2022-09-10T11:39:04.511Z,16.08
2022-09-10T11:41:34.498Z,16.70
2022-09-10T11:44:10.652Z,18.00
2022-09-10T11:46:46.163Z,17.58
2022-09-10T11:49:21.746Z,18.20
2022-09-10T11:51:51.977Z,16.98
2022-09-10T11:54:25.570Z,16.88
2022-09-10T11:57:00.156Z,16.67
2022-09-10T11:59:46.427Z,12.25
2022-09-10T12:02:41.567Z,14.45
2022-09-10T12:05:20.906Z,16.13
2022-09-10T12:07:54.428Z,15.93
2022-09-10T12:10:31.681Z,17.00
2022-09-10T12:13:01.494Z,17.77
2022-09-10T12:15:34.431Z,17.67
2022-09-10T12:18:11.213Z,18.52
2022-09-10T12:20:44.810Z,20.02
2022-09-10T12:23:18.720Z,20.35
2022-09-10T12:25:48.323Z,22.10
2022-09-10T12:28:56.385Z,22.00
2022-09-10T12:31:27.607Z,21.60
2022-09-10T12:34:21.379Z,21.55
2022-09-10T12:37:22.031Z,23.33
2022-09-10T12:39:52.255Z,22.97
2022-09-10T12:42:36.804Z,21.15
2022-09-10T12:45:06.888Z,22.50
2022-09-10T12:47:57.554Z,22.02
2022-09-10T12:50:38.575Z,20.23
2022-09-10T12:53:33.175Z,18.98
2022-09-10T12:56:04.514Z,20.23
2022-09-10T12:58:47.948Z,19.33
2022-09-10T13:01:24.158Z,19.07
2022-09-10T13:03:56.508Z,19.13
2022-09-10T13:06:42.703Z,19.58
2022-09-10T13:09:20.114Z,17.70
2022-09-10T13:11:52.300Z,18.10
2022-09-10T13:14:23.933Z,18.33
2022-09-10T13:16:55.371Z,19.10
2022-09-10T13:19:53.387Z,19.30
2022-09-10T13:23:04.401Z,20.15
2022-09-10T13:25:42.877Z,21.13
2022-09-10T13:28:45.133Z,20.30
2022-09-10T13:31:21.059Z,18.83
2022-09-10T13:34:02.937Z,19.02
2022-09-10T13:36:35.729Z,18.48
2022-09-10T13:39:20.147Z,18.25
2022-09-10T13:42:18.541Z,16.33
2022-09-10T13:45:17.198Z,19.50
2022-09-10T13:47:50.088Z,18.90
2022-09-10T13:50:22.887Z,19.30
2022-09-10T13:52:55.676Z,19.40
2022-09-10T13:55:29.766Z,20.08
2022-09-10T13:58:03.507Z,18.93
2022-09-10T14:00:37.231Z,20.30
2022-09-10T14:03:16.963Z,20.00
2022-09-10T14:05:50.076Z,19.95
2022-09-10T14:08:23.139Z,20.67
2022-09-10T14:10:57.304Z,21.38
2022-09-10T14:13:32.729Z,20.38
2022-09-10T14:16:04.580Z,20.42
2022-09-10T14:18:40.342Z,20.73
2022-09-10T14:21:09.973Z,20.15
2022-09-10T14:23:41.014Z,19.80
2022-09-10T14:26:15.367Z,20.00
2022-09-10T14:28:58.890Z,18.70
2022-09-10T14:31:35.153Z,19.70
2022-09-10T14:34:33.377Z,18.85
2022-09-10T14:37:03.556Z,19.40
2022-09-10T14:39:35.481Z,21.08
2022-09-10T14:42:13.869Z,20.13
2022-09-10T14:44:46.228Z,19.52
2022-09-10T14:47:23.618Z,22.08
2022-09-10T14:49:53.299Z,21.33
2022-09-10T14:52:23.476Z,21.10
2022-09-10T14:54:53.035Z,21.15
2022-09-10T14:57:23.239Z,21.38
2022-09-10T14:59:57.501Z,21.30
2022-09-10T15:02:29.058Z,23.63
2022-09-10T15:04:58.648Z,23.35
2022-09-10T15:07:28.588Z,23.70
2022-09-10T15:09:58.137Z,23.85
2022-09-10T15:12:29.198Z,23.93
2022-09-10T15:15:01.550Z,24.83
2022-09-10T15:17:31.096Z,25.05
2022-09-10T15:20:01.593Z,24.70
2022-09-10T15:22:32.831Z,25.90
2022-09-10T15:25:11.183Z,26.40
2022-09-10T15:27:41.811Z,25.23
2022-09-10T15:30:14.315Z,26.50
2022-09-10T15:32:45.914Z,27.75
2022-09-10T15:35:15.560Z,26.88
2022-09-10T15:37:45.128Z,25.88
2022-09-10T15:40:14.732Z,26.63
2022-09-10T15:42:44.314Z,25.55
2022-09-10T15:45:16.656Z,25.98
2022-09-10T15:47:46.200Z,25.67
2022-09-10T15:50:16.247Z,26.13
2022-09-10T15:52:45.980Z,25.98
2022-09-10T15:55:16.153Z,25.25
2022-09-10T15:57:45.663Z,23.10
2022-09-10T16:00:18.658Z,24.92
2022-09-10T16:02:53.065Z,24.70
2022-09-10T16:05:23.840Z,23.20
2022-09-10T16:07:53.415Z,23.80
2022-09-10T16:10:23.227Z,21.13
2022-09-10T16:12:53.335Z,20.17
2022-09-10T16:15:26.103Z,17.70
2022-09-10T16:17:56.379Z,18.40
2022-09-10T16:20:26.607Z,17.15
2022-09-10T16:22:58.275Z,18.20
2022-09-10T16:25:29.246Z,18.75
2022-09-10T16:27:59.103Z,18.48
2022-09-10T16:30:31.672Z,17.73
2022-09-10T16:33:01.267Z,18.20
2022-09-10T16:35:30.833Z,17.63
2022-09-10T16:38:01.115Z,18.27
2022-09-10T16:40:30.755Z,19.00
2022-09-10T16:43:00.344Z,20.73
2022-09-10T16:45:32.878Z,22.05
2022-09-10T16:48:04.396Z,19.50
2022-09-10T16:50:35.305Z,20.05
2022-09-10T16:53:08.978Z,18.75
2022-09-10T16:55:41.017Z,18.52
2022-09-10T16:58:10.704Z,15.93
2022-09-10T17:04:29.283Z,15.50
2022-09-10T17:06:59.183Z,15.32
2022-09-10T17:09:28.941Z,16.30
2022-09-10T17:11:58.461Z,17.00
2022-09-10T17:14:28.251Z,14.23
2022-09-10T17:16:58.594Z,13.10
2022-09-10T17:19:30.855Z,13.10
2022-09-10T17:22:00.489Z,12.45
2022-09-10T17:24:30.011Z,12.90
2022-09-10T17:26:59.679Z,13.60
2022-09-10T17:29:29.931Z,12.75
2022-09-10T17:31:59.932Z,12.05
2022-09-10T17:34:33.807Z,13.40
2022-09-10T17:37:03.418Z,13.23
2022-09-10T17:39:33.125Z,13.77
2022-09-10T17:42:02.682Z,13.00
2022-09-10T17:44:32.232Z,13.43
2022-09-10T17:47:01.780Z,13.30
2022-09-10T17:49:33.971Z,12.95
2022-09-10T17:52:04.614Z,13.77
2022-09-10T17:54:34.470Z,13.60
2022-09-10T17:57:04.137Z,12.80
2022-09-10T17:59:35.205Z,12.63
2022-09-10T18:02:05.133Z,13.75
2022-09-10T18:04:37.448Z,13.65
2022-09-10T18:07:07.103Z,14.30
2022-09-10T18:09:36.994Z,13.82
2022-09-10T18:12:06.860Z,12.40
2022-09-10T18:14:37.316Z,13.70
2022-09-10T18:17:07.179Z,13.55
2022-09-10T18:19:39.293Z,13.90
2022-09-10T18:22:08.859Z,14.65
2022-09-10T18:24:39.017Z,13.03
2022-09-10T18:27:08.595Z,15.48
2022-09-10T18:29:41.402Z,14.60
2022-09-10T18:32:11.051Z,15.02
2022-09-10T18:34:43.327Z,13.17
2022-09-10T18:37:13.820Z,13.60
2022-09-10T18:39:43.475Z,15.27
2022-09-10T18:42:13.784Z,14.80
2022-09-10T18:44:43.461Z,14.15
2022-09-10T18:47:34.303Z,14.90
2022-09-10T18:50:05.237Z,14.07
2022-09-10T18:52:35.814Z,15.70
2022-09-10T18:55:05.489Z,15.60
2022-09-10T18:57:35.050Z,16.00
2022-09-10T19:00:05.186Z,16.02
2022-09-10T19:02:34.819Z,18.20
2022-09-10T19:05:11.592Z,15.63
2022-09-10T19:07:41.783Z,17.13
2022-09-10T19:10:11.508Z,15.05
2022-09-10T19:12:42.059Z,14.88
2022-09-10T19:15:12.788Z,16.40
2022-09-10T19:17:42.366Z,15.43
2022-09-10T19:20:14.619Z,17.30
2022-09-10T19:22:44.220Z,15.70
2022-09-10T19:25:14.161Z,15.38
2022-09-10T19:27:45.158Z,17.65
2022-09-10T19:30:15.586Z,16.33
2022-09-10T19:32:45.115Z,16.33
2022-09-10T19:35:17.524Z,15.65
2022-09-10T19:37:48.205Z,17.08
2022-09-10T19:40:18.004Z,16.83
2022-09-10T19:42:47.557Z,18.08
2022-09-10T19:45:17.197Z,17.35
2022-09-10T19:47:47.064Z,17.48
2022-09-10T19:50:22.774Z,18.27
2022-09-10T19:52:53.667Z,18.60
2022-09-10T19:55:23.634Z,23.77
2022-09-10T19:57:54.187Z,23.85
2022-09-10T20:00:45.352Z,27.98
2022-09-10T20:03:13.737Z,30.17
2022-09-10T20:05:46.205Z,30.08
2022-09-10T20:08:15.787Z,28.95
2022-09-10T20:10:51.925Z,26.25
2022-09-10T20:13:21.614Z,28.00
2022-09-10T20:15:51.387Z,30.70
2022-09-10T20:18:21.209Z,32.28
2022-09-10T20:20:53.621Z,37.97
2022-09-10T20:23:23.244Z,40.33
2022-09-10T20:25:52.751Z,38.00
2022-09-10T20:28:22.266Z,31.58
2022-09-10T20:30:52.208Z,32.92
2022-09-10T20:33:22.341Z,28.70
2022-09-10T20:35:54.530Z,24.60
2022-09-10T20:38:24.119Z,22.92
2022-09-10T20:40:53.627Z,21.60
2022-09-10T20:43:23.229Z,20.53
2022-09-10T20:45:52.737Z,22.00
2022-09-10T20:48:22.283Z,20.35
2022-09-10T20:50:59.155Z,20.67
2022-09-10T20:53:28.979Z,20.25
2022-09-10T20:56:06.373Z,20.48
2022-09-10T20:58:37.318Z,20.73
2022-09-10T21:01:11.563Z,20.55
2022-09-10T21:03:42.006Z,21.05
2022-09-10T21:06:15.545Z,23.35
2022-09-10T21:08:45.484Z,23.53
2022-09-10T21:11:16.045Z,26.08
2022-09-10T21:13:47.504Z,22.25
2022-09-10T21:16:19.821Z,23.70
2022-09-10T21:18:54.383Z,25.88
2022-09-10T21:21:28.460Z,26.98
2022-09-10T21:23:59.591Z,23.00
2022-09-10T21:26:30.571Z,21.48
2022-09-10T21:29:02.160Z,24.42
2022-09-10T21:31:32.841Z,21.20
2022-09-10T21:34:03.774Z,23.38
2022-09-10T21:36:37.425Z,24.30
2022-09-10T21:39:09.818Z,24.35
2022-09-10T21:41:41.028Z,24.85
2022-09-10T21:44:14.233Z,24.88
2022-09-10T21:46:44.491Z,24.05
2022-09-10T21:49:14.122Z,26.10
2022-09-10T21:51:46.503Z,25.45
2022-09-10T21:54:18.686Z,26.73
2022-09-10T21:56:48.305Z,28.00
2022-09-10T21:59:18.180Z,27.65
2022-09-10T22:01:49.142Z,25.42
2022-09-10T22:04:22.848Z,24.37
2022-09-10T22:06:57.487Z,25.17
2022-09-10T22:09:27.085Z,24.85
2022-09-10T22:11:59.168Z,24.45
2022-09-10T22:14:28.977Z,24.77
2022-09-10T22:17:00.236Z,26.40
2022-09-10T22:19:30.000Z,24.92
2022-09-10T22:22:02.654Z,25.23
2022-09-10T22:24:32.201Z,25.30
2022-09-10T22:27:02.332Z,24.55
2022-09-10T22:29:31.920Z,24.40
2022-09-10T22:32:01.449Z,22.70
2022-09-10T22:34:30.972Z,23.05
2022-09-10T22:37:03.296Z,22.52
2022-09-10T22:39:36.806Z,22.20
2022-09-10T22:42:07.587Z,23.27
2022-09-10T22:44:37.252Z,25.23
2022-09-10T22:47:08.044Z,25.30
2022-09-10T22:49:37.614Z,25.00
2022-09-10T22:52:09.799Z,23.42
2022-09-10T22:54:39.433Z,23.38
2022-09-10T22:57:08.944Z,21.92
2022-09-10T22:59:38.487Z,22.33
2022-09-10T23:02:08.043Z,23.25
2022-09-10T23:04:37.607Z,21.17
2022-09-10T23:07:09.841Z,22.47
2022-09-10T23:09:39.360Z,21.30
2022-09-10T23:12:09.344Z,23.25
2022-09-10T23:14:39.314Z,22.93
2022-09-10T23:17:09.060Z,21.63
2022-09-10T23:19:38.650Z,23.33
2022-09-10T23:22:12.868Z,22.88
2022-09-10T23:24:42.401Z,21.02
2022-09-10T23:27:13.429Z,21.65
2022-09-10T23:29:43.158Z,21.63
2022-09-10T23:32:12.712Z,21.85
2022-09-10T23:34:42.905Z,22.67
2022-09-10T23:37:15.244Z,24.27
2022-09-10T23:39:44.839Z,24.70
2022-09-10T23:42:14.757Z,24.83
2022-09-10T23:44:44.248Z,24.40
2022-09-10T23:47:13.774Z,24.52
2022-09-10T23:49:43.952Z,23.50
2022-09-10T23:52:16.084Z,23.25
2022-09-10T23:54:45.631Z,24.05
2022-09-10T23:57:15.205Z,22.02
2022-09-10T23:59:44.816Z,21.15
